Dera Ismail Khan Weather



Dera Ismail Khan's Current Weather

Temprature 26.23o clear sky

clear sky

Rain: 0 %

Min Temprature26.23o
Max Temprature26.23o
Humidity60
Wind Speed2.37 m/h
Sun Rise06:06:46
Sun Set18:08:54
Current Time: 26-Sep-2022 08:22:00
Lat/Lon: 31.8327, 70.9024




Dera Ismail Khan's Geo Location



Dera Ismail Khan's Weather Forecast

Time Overall Temp Min Temp Max Temp Humidity Wind Speed Rain
26-Sep-2022 (Mon)
11:00:00 clear sky 27.800 27.800 30.940 55 1.62 m/h 0 %
14:00:00 clear sky 31.700 31.700 34.440 43 1.47 m/h 0 %
17:00:00 clear sky 34.840 34.840 34.840 32 1.42 m/h 0 %
20:00:00 clear sky 32.400 32.400 32.400 37 2.86 m/h 0 %
23:00:00 clear sky 31.000 31.000 31.000 41 2.7 m/h 0 %
27-Sep-2022 (Tue)
02:00:00 clear sky 29.940 29.940 29.940 44 2.06 m/h 0 %
05:00:00 clear sky 28.870 28.870 28.870 47 1.91 m/h 0 %
08:00:00 clear sky 30.710 30.710 30.710 43 2.02 m/h 0 %
11:00:00 clear sky 34.520 34.520 34.520 34 2.08 m/h 0 %
14:00:00 clear sky 37.000 37.000 37.000 28 2.57 m/h 0 %
17:00:00 clear sky 36.960 36.960 36.960 26 3.48 m/h 0 %
20:00:00 clear sky 33.890 33.890 33.890 31 3.36 m/h 0 %
23:00:00 clear sky 32.430 32.430 32.430 30 3.56 m/h 0 %
28-Sep-2022 (Wed)
02:00:00 clear sky 30.130 30.130 30.130 41 3.59 m/h 0 %
05:00:00 clear sky 28.490 28.490 28.490 48 3.47 m/h 0 %
08:00:00 clear sky 30.110 30.110 30.110 45 3.43 m/h 0 %
11:00:00 clear sky 35.380 35.380 35.380 29 3.33 m/h 0 %
14:00:00 clear sky 38.110 38.110 38.110 22 2.8 m/h 0 %
17:00:00 clear sky 37.910 37.910 37.910 20 3.71 m/h 0 %
20:00:00 clear sky 34.070 34.070 34.070 25 3.58 m/h 0 %
23:00:00 clear sky 31.550 31.550 31.550 30 3.18 m/h 0 %
29-Sep-2022 (Thu)
02:00:00 clear sky 29.550 29.550 29.550 34 2.94 m/h 0 %
05:00:00 clear sky 28.140 28.140 28.140 38 2.69 m/h 0 %
08:00:00 clear sky 30.260 30.260 30.260 36 3.36 m/h 0 %
11:00:00 clear sky 35.620 35.620 35.620 24 2.93 m/h 0 %
14:00:00 clear sky 38.440 38.440 38.440 18 2.52 m/h 0 %
17:00:00 clear sky 38.400 38.400 38.400 17 2.8 m/h 0 %
20:00:00 clear sky 33.960 33.960 33.960 23 3.26 m/h 0 %
23:00:00 clear sky 32.090 32.090 32.090 26 4.67 m/h 0 %
30-Sep-2022 (Fri)
02:00:00 clear sky 29.660 29.660 29.660 29 2.45 m/h 0 %
05:00:00 clear sky 28.260 28.260 28.260 31 2.6 m/h 0 %
08:00:00 clear sky 30.350 30.350 30.350 28 2.43 m/h 0 %
11:00:00 clear sky 35.730 35.730 35.730 21 1.59 m/h 0 %
14:00:00 clear sky 38.780 38.780 38.780 16 1.88 m/h 0 %
17:00:00 clear sky 38.720 38.720 38.720 15 2.85 m/h 0 %
20:00:00 clear sky 34.050 34.050 34.050 20 3.64 m/h 0 %
23:00:00 clear sky 31.650 31.650 31.650 29 3.76 m/h 0 %
01-Oct-2022 (Sat)
02:00:00 clear sky 29.310 29.310 29.310 34 2.52 m/h 0 %
05:00:00 clear sky 27.680 27.680 27.680 38 2.04 m/h 0 %
08:00:00 clear sky 30.250 30.250 30.250 34 3 m/h 0 %


Dera Ismail Khan's Tourist Spots

Historical Places in Dera Ismail Khan

Famous Cities (61)